sensor_id;sensor_type;location;lat;lon;timestamp;pressure;altitude;pressure_sealevel;temperature;humidity
49216;BME280;45943;53.148;8.204;2023-04-07T00:01:57;101619.03;;;14.01;89.12
49216;BME280;45943;53.148;8.204;2023-04-07T00:04:23;101611.81;;;13.90;87.54
49216;BME280;45943;53.148;8.204;2023-04-07T00:06:49;101629.13;;;13.88;87.82
49216;BME280;45943;53.148;8.204;2023-04-07T00:09:15;101624.47;;;13.78;87.92
49216;BME280;45943;53.148;8.204;2023-04-07T00:11:41;101620.06;;;13.77;87.67
49216;BME280;45943;53.148;8.204;2023-04-07T00:14:07;101627.78;;;13.82;87.27
49216;BME280;45943;53.148;8.204;2023-04-07T00:16:33;101617.13;;;13.81;87.48
49216;BME280;45943;53.148;8.204;2023-04-07T00:18:59;101616.25;;;13.80;88.88
49216;BME280;45943;53.148;8.204;2023-04-07T00:21:25;101609.75;;;13.83;88.05
49216;BME280;45943;53.148;8.204;2023-04-07T00:23:51;101614.78;;;13.87;86.53
49216;BME280;45943;53.148;8.204;2023-04-07T00:26:17;101614.78;;;13.87;86.84
49216;BME280;45943;53.148;8.204;2023-04-07T00:28:43;101622.03;;;13.87;86.95
49216;BME280;45943;53.148;8.204;2023-04-07T00:31:09;101622.03;;;13.87;87.92
49216;BME280;45943;53.148;8.204;2023-04-07T00:33:36;101624.72;;;13.87;88.78
49216;BME280;45943;53.148;8.204;2023-04-07T00:36:02;101617.84;;;13.83;90.39
49216;BME280;45943;53.148;8.204;2023-04-07T00:38:28;101618.22;;;13.78;90.20
49216;BME280;45943;53.148;8.204;2023-04-07T00:40:57;101614.78;;;13.76;91.39
49216;BME280;45943;53.148;8.204;2023-04-07T00:43:26;101616.63;;;13.75;91.16
49216;BME280;45943;53.148;8.204;2023-04-07T00:45:52;101613.59;;;13.69;93.14
49216;BME280;45943;53.148;8.204;2023-04-07T00:48:19;101622.53;;;13.58;92.29
49216;BME280;45943;53.148;8.204;2023-04-07T00:50:45;101615.44;;;13.57;93.72
49216;BME280;45943;53.148;8.204;2023-04-07T00:53:11;101610.91;;;13.58;93.84
49216;BME280;45943;53.148;8.204;2023-04-07T00:55:38;101612.75;;;13.57;92.60
49216;BME280;45943;53.148;8.204;2023-04-07T00:58:04;101610.28;;;13.54;92.53
49216;BME280;45943;53.148;8.204;2023-04-07T01:00:30;101608.09;;;13.48;93.17
49216;BME280;45943;53.148;8.204;2023-04-07T01:03:01;101605.16;;;13.40;93.66
49216;BME280;45943;53.148;8.204;2023-04-07T01:05:36;101601.09;;;13.34;91.94
49216;BME280;45943;53.148;8.204;2023-04-07T01:08:15;101605.88;;;13.31;89.67
49216;BME280;45943;53.148;8.204;2023-04-07T01:10:51;101603.44;;;13.28;86.66
49216;BME280;45943;53.148;8.204;2023-04-07T01:13:26;101611.88;;;13.23;84.57
49216;BME280;45943;53.148;8.204;2023-04-07T01:15:57;101610.63;;;13.16;80.97
49216;BME280;45943;53.148;8.204;2023-04-07T01:18:30;101613.56;;;13.13;81.27
49216;BME280;45943;53.148;8.204;2023-04-07T01:21:08;101609.16;;;13.12;79.34
49216;BME280;45943;53.148;8.204;2023-04-07T01:26:29;101613.19;;;13.06;76.03
49216;BME280;45943;53.148;8.204;2023-04-07T01:31:42;101604.38;;;13.04;72.31
49216;BME280;45943;53.148;8.204;2023-04-07T01:34:11;101610.34;;;12.97;70.20
49216;BME280;45943;53.148;8.204;2023-04-07T01:36:38;101612.81;;;13.00;69.82
49216;BME280;45943;53.148;8.204;2023-04-07T01:39:06;101602.91;;;13.00;68.30
49216;BME280;45943;53.148;8.204;2023-04-07T01:41:34;101617.22;;;13.01;66.97
49216;BME280;45943;53.148;8.204;2023-04-07T01:44:02;101613.03;;;12.97;66.62
49216;BME280;45943;53.148;8.204;2023-04-07T01:46:30;101616.38;;;13.00;66.90
49216;BME280;45943;53.148;8.204;2023-04-07T01:48:56;101613.69;;;13.00;65.71
49216;BME280;45943;53.148;8.204;2023-04-07T01:51:23;101611.47;;;13.05;66.57
49216;BME280;45943;53.148;8.204;2023-04-07T01:53:51;101614.88;;;12.96;63.60
49216;BME280;45943;53.148;8.204;2023-04-07T01:56:18;101614.22;;;12.70;61.66
49216;BME280;45943;53.148;8.204;2023-04-07T01:58:44;101610.00;;;12.55;61.44
49216;BME280;45943;53.148;8.204;2023-04-07T02:01:11;101615.38;;;12.55;61.75
49216;BME280;45943;53.148;8.204;2023-04-07T02:04:24;101615.22;;;12.45;60.42
49216;BME280;45943;53.148;8.204;2023-04-07T02:06:43;101617.94;;;12.45;59.99
49216;BME280;45943;53.148;8.204;2023-04-07T02:09:17;101619.16;;;12.41;60.17
49216;BME280;45943;53.148;8.204;2023-04-07T02:11:45;101618.66;;;12.47;60.01
49216;BME280;45943;53.148;8.204;2023-04-07T02:14:14;101615.00;;;12.48;59.81
49216;BME280;45943;53.148;8.204;2023-04-07T02:16:42;101613.69;;;12.54;59.53
49216;BME280;45943;53.148;8.204;2023-04-07T02:19:09;101612.81;;;12.53;59.44
49216;BME280;45943;53.148;8.204;2023-04-07T02:21:35;101620.28;;;12.50;59.08
49216;BME280;45943;53.148;8.204;2023-04-07T02:24:04;101619.03;;;12.43;58.67
49216;BME280;45943;53.148;8.204;2023-04-07T02:26:34;101616.66;;;12.38;59.44
49216;BME280;45943;53.148;8.204;2023-04-07T02:29:03;101612.97;;;12.28;58.42
49216;BME280;45943;53.148;8.204;2023-04-07T02:31:30;101618.47;;;12.26;58.99
49216;BME280;45943;53.148;8.204;2023-04-07T02:33:56;101620.78;;;12.20;58.52
49216;BME280;45943;53.148;8.204;2023-04-07T02:36:22;101617.97;;;12.21;58.42
49216;BME280;45943;53.148;8.204;2023-04-07T02:38:48;101614.28;;;12.22;57.83
49216;BME280;45943;53.148;8.204;2023-04-07T02:41:15;101619.91;;;12.19;57.90
49216;BME280;45943;53.148;8.204;2023-04-07T02:43:40;101620.84;;;12.18;58.10
49216;BME280;45943;53.148;8.204;2023-04-07T02:46:06;101619.50;;;12.13;58.05
49216;BME280;45943;53.148;8.204;2023-04-07T02:48:33;101616.53;;;12.04;57.84
49216;BME280;45943;53.148;8.204;2023-04-07T02:50:59;101619.16;;;11.93;57.93
49216;BME280;45943;53.148;8.204;2023-04-07T02:53:25;101613.81;;;11.81;57.79
49216;BME280;45943;53.148;8.204;2023-04-07T02:55:51;101619.50;;;11.76;58.12
49216;BME280;45943;53.148;8.204;2023-04-07T02:58:17;101620.63;;;11.61;58.00
49216;BME280;45943;53.148;8.204;2023-04-07T03:00:43;101626.19;;;11.58;58.16
49216;BME280;45943;53.148;8.204;2023-04-07T03:03:09;101624.34;;;11.71;57.74
49216;BME280;45943;53.148;8.204;2023-04-07T03:05:35;101622.25;;;11.38;57.57
49216;BME280;45943;53.148;8.204;2023-04-07T03:08:01;101624.88;;;11.14;58.47
49216;BME280;45943;53.148;8.204;2023-04-07T03:10:27;101619.91;;;11.20;58.67
49216;BME280;45943;53.148;8.204;2023-04-07T03:12:53;101623.97;;;11.39;58.26
49216;BME280;45943;53.148;8.204;2023-04-07T03:15:19;101621.09;;;11.16;58.52
49216;BME280;45943;53.148;8.204;2023-04-07T03:17:45;101626.25;;;11.32;58.50
49216;BME280;45943;53.148;8.204;2023-04-07T03:20:11;101623.75;;;11.29;57.96
49216;BME280;45943;53.148;8.204;2023-04-07T03:22:37;101629.34;;;11.39;57.92
49216;BME280;45943;53.148;8.204;2023-04-07T03:25:03;101621.94;;;11.30;58.34
49216;BME280;45943;53.148;8.204;2023-04-07T03:27:30;101623.84;;;11.40;57.45
49216;BME280;45943;53.148;8.204;2023-04-07T03:29:56;101622.56;;;11.46;57.32
49216;BME280;45943;53.148;8.204;2023-04-07T03:32:22;101606.34;;;11.47;57.49
49216;BME280;45943;53.148;8.204;2023-04-07T03:34:48;101612.44;;;11.49;57.39
49216;BME280;45943;53.148;8.204;2023-04-07T03:37:13;101611.19;;;11.42;57.06
49216;BME280;45943;53.148;8.204;2023-04-07T03:39:40;101608.31;;;11.20;57.72
49216;BME280;45943;53.148;8.204;2023-04-07T03:42:06;101606.28;;;11.24;57.76
49216;BME280;45943;53.148;8.204;2023-04-07T03:44:32;101611.19;;;11.30;57.76
49216;BME280;45943;53.148;8.204;2023-04-07T03:46:59;101608.50;;;11.30;57.52
49216;BME280;45943;53.148;8.204;2023-04-07T03:49:25;101617.75;;;11.26;57.39
49216;BME280;45943;53.148;8.204;2023-04-07T03:51:51;101616.47;;;11.18;57.59
49216;BME280;45943;53.148;8.204;2023-04-07T03:54:17;101619.25;;;11.30;57.53
49216;BME280;45943;53.148;8.204;2023-04-07T03:56:43;101616.59;;;11.17;57.21
49216;BME280;45943;53.148;8.204;2023-04-07T03:59:10;101630.66;;;10.95;57.29
49216;BME280;45943;53.148;8.204;2023-04-07T04:01:36;101633.03;;;11.12;57.45
49216;BME280;45943;53.148;8.204;2023-04-07T04:04:02;101626.91;;;10.98;57.82
49216;BME280;45943;53.148;8.204;2023-04-07T04:06:28;101629.47;;;10.86;58.00
49216;BME280;45943;53.148;8.204;2023-04-07T04:08:54;101632.03;;;11.01;57.46
49216;BME280;45943;53.148;8.204;2023-04-07T04:11:20;101639.25;;;11.00;57.54
49216;BME280;45943;53.148;8.204;2023-04-07T04:13:46;101640.94;;;10.76;57.71
49216;BME280;45943;53.148;8.204;2023-04-07T04:16:12;101641.31;;;10.44;58.57
49216;BME280;45943;53.148;8.204;2023-04-07T04:18:38;101644.50;;;10.37;58.33
49216;BME280;45943;53.148;8.204;2023-04-07T04:21:05;101644.41;;;10.38;58.77
49216;BME280;45943;53.148;8.204;2023-04-07T04:23:31;101644.19;;;10.41;58.44
49216;BME280;45943;53.148;8.204;2023-04-07T04:25:57;101641.75;;;10.51;57.78
49216;BME280;45943;53.148;8.204;2023-04-07T04:28:24;101650.75;;;10.50;57.90
49216;BME280;45943;53.148;8.204;2023-04-07T04:30:51;101639.09;;;10.63;57.88
49216;BME280;45943;53.148;8.204;2023-04-07T04:33:17;101648.63;;;10.55;57.61
49216;BME280;45943;53.148;8.204;2023-04-07T04:35:43;101651.00;;;10.59;57.65
49216;BME280;45943;53.148;8.204;2023-04-07T04:38:10;101662.59;;;10.60;57.85
49216;BME280;45943;53.148;8.204;2023-04-07T04:40:36;101653.69;;;10.59;57.13
49216;BME280;45943;53.148;8.204;2023-04-07T04:43:02;101660.13;;;10.70;57.62
49216;BME280;45943;53.148;8.204;2023-04-07T04:45:32;101655.72;;;10.56;57.66
49216;BME280;45943;53.148;8.204;2023-04-07T04:47:58;101667.09;;;10.59;57.67
49216;BME280;45943;53.148;8.204;2023-04-07T04:50:24;101665.94;;;10.63;57.79
49216;BME280;45943;53.148;8.204;2023-04-07T04:52:50;101669.63;;;10.48;57.83
49216;BME280;45943;53.148;8.204;2023-04-07T04:55:16;101661.31;;;10.66;58.03
49216;BME280;45943;53.148;8.204;2023-04-07T04:57:42;101669.28;;;10.80;57.73
49216;BME280;45943;53.148;8.204;2023-04-07T05:00:08;101671.84;;;10.81;57.20
49216;BME280;45943;53.148;8.204;2023-04-07T05:02:35;101668.25;;;10.82;57.35
49216;BME280;45943;53.148;8.204;2023-04-07T05:05:01;101672.63;;;10.83;57.37
49216;BME280;45943;53.148;8.204;2023-04-07T05:07:27;101675.72;;;10.77;56.97
49216;BME280;45943;53.148;8.204;2023-04-07T05:09:53;101682.91;;;10.77;57.74
49216;BME280;45943;53.148;8.204;2023-04-07T05:12:19;101695.81;;;10.72;57.70
49216;BME280;45943;53.148;8.204;2023-04-07T05:14:46;101691.47;;;10.69;57.12
49216;BME280;45943;53.148;8.204;2023-04-07T05:17:12;101700.34;;;10.57;57.77
49216;BME280;45943;53.148;8.204;2023-04-07T05:19:38;101699.09;;;10.62;57.51
49216;BME280;45943;53.148;8.204;2023-04-07T05:22:04;101696.19;;;10.66;57.74
49216;BME280;45943;53.148;8.204;2023-04-07T05:24:30;101696.59;;;10.59;57.47
49216;BME280;45943;53.148;8.204;2023-04-07T05:26:56;101696.94;;;10.68;57.18
49216;BME280;45943;53.148;8.204;2023-04-07T05:29:22;101705.22;;;10.65;57.20
49216;BME280;45943;53.148;8.204;2023-04-07T05:31:48;101712.59;;;10.61;57.12
49216;BME280;45943;53.148;8.204;2023-04-07T05:34:14;101715.75;;;10.41;57.40
49216;BME280;45943;53.148;8.204;2023-04-07T05:36:40;101707.97;;;10.23;57.69
49216;BME280;45943;53.148;8.204;2023-04-07T05:39:06;101713.31;;;10.23;57.87
49216;BME280;45943;53.148;8.204;2023-04-07T05:41:32;101715.44;;;10.45;57.09
49216;BME280;45943;53.148;8.204;2023-04-07T05:43:58;101716.66;;;10.54;56.84
49216;BME280;45943;53.148;8.204;2023-04-07T05:46:24;101716.34;;;10.58;56.66
49216;BME280;45943;53.148;8.204;2023-04-07T05:48:50;101716.25;;;10.60;56.92
49216;BME280;45943;53.148;8.204;2023-04-07T05:51:16;101714.66;;;10.70;56.45
49216;BME280;45943;53.148;8.204;2023-04-07T05:53:42;101723.53;;;10.17;56.70
49216;BME280;45943;53.148;8.204;2023-04-07T05:56:08;101714.03;;;10.40;57.11
49216;BME280;45943;53.148;8.204;2023-04-07T05:58:34;101726.81;;;10.22;57.16
49216;BME280;45943;53.148;8.204;2023-04-07T06:01:00;101729.69;;;10.33;57.08
49216;BME280;45943;53.148;8.204;2023-04-07T06:03:26;101734.34;;;10.29;57.24
49216;BME280;45943;53.148;8.204;2023-04-07T06:05:52;101737.03;;;10.29;57.33
49216;BME280;45943;53.148;8.204;2023-04-07T06:08:18;101740.63;;;9.87;58.36
49216;BME280;45943;53.148;8.204;2023-04-07T06:10:44;101741.75;;;9.97;58.23
49216;BME280;45943;53.148;8.204;2023-04-07T06:13:10;101734.47;;;10.14;58.55
49216;BME280;45943;53.148;8.204;2023-04-07T06:15:36;101742.88;;;10.36;58.03
49216;BME280;45943;53.148;8.204;2023-04-07T06:18:02;101742.00;;;10.21;57.72
49216;BME280;45943;53.148;8.204;2023-04-07T06:20:28;101744.66;;;9.94;58.82
49216;BME280;45943;53.148;8.204;2023-04-07T06:22:54;101748.44;;;10.19;58.63
49216;BME280;45943;53.148;8.204;2023-04-07T06:25:21;101752.00;;;10.33;58.71
49216;BME280;45943;53.148;8.204;2023-04-07T06:27:47;101754.00;;;10.16;59.21
49216;BME280;45943;53.148;8.204;2023-04-07T06:30:13;101757.63;;;10.29;58.71
49216;BME280;45943;53.148;8.204;2023-04-07T06:32:39;101754.94;;;10.43;58.87
49216;BME280;45943;53.148;8.204;2023-04-07T06:35:05;101759.38;;;10.57;58.85
49216;BME280;45943;53.148;8.204;2023-04-07T06:37:31;101759.84;;;10.63;58.42
49216;BME280;45943;53.148;8.204;2023-04-07T06:39:57;101774.78;;;10.68;58.94
49216;BME280;45943;53.148;8.204;2023-04-07T06:42:23;101773.44;;;10.33;59.66
49216;BME280;45943;53.148;8.204;2023-04-07T06:44:49;101769.34;;;10.55;59.23
49216;BME280;45943;53.148;8.204;2023-04-07T06:47:15;101774.50;;;10.58;59.73
49216;BME280;45943;53.148;8.204;2023-04-07T06:49:41;101776.91;;;10.62;59.75
49216;BME280;45943;53.148;8.204;2023-04-07T06:52:07;101771.78;;;10.72;59.14
49216;BME280;45943;53.148;8.204;2023-04-07T06:54:33;101781.50;;;10.87;59.01
49216;BME280;45943;53.148;8.204;2023-04-07T06:56:59;101780.91;;;11.09;58.86
49216;BME280;45943;53.148;8.204;2023-04-07T06:59:26;101780.59;;;11.01;59.27
49216;BME280;45943;53.148;8.204;2023-04-07T07:01:52;101784.22;;;11.00;58.99
49216;BME280;45943;53.148;8.204;2023-04-07T07:04:18;101787.97;;;10.98;59.24
49216;BME280;45943;53.148;8.204;2023-04-07T07:06:44;101791.03;;;11.18;59.49
49216;BME280;45943;53.148;8.204;2023-04-07T07:09:10;101798.41;;;11.42;58.27
49216;BME280;45943;53.148;8.204;2023-04-07T07:11:36;101802.47;;;11.47;58.82
49216;BME280;45943;53.148;8.204;2023-04-07T07:14:01;101799.66;;;11.49;58.46
49216;BME280;45943;53.148;8.204;2023-04-07T07:16:27;101803.75;;;11.42;58.98
49216;BME280;45943;53.148;8.204;2023-04-07T07:18:53;101811.19;;;11.51;58.81
49216;BME280;45943;53.148;8.204;2023-04-07T07:21:20;101815.16;;;11.58;57.77
49216;BME280;45943;53.148;8.204;2023-04-07T07:23:45;101807.66;;;11.51;58.11
49216;BME280;45943;53.148;8.204;2023-04-07T07:26:11;101820.75;;;11.55;58.75
49216;BME280;45943;53.148;8.204;2023-04-07T07:28:37;101816.47;;;11.65;58.01
49216;BME280;45943;53.148;8.204;2023-04-07T07:31:08;101826.06;;;11.82;57.32
49216;BME280;45943;53.148;8.204;2023-04-07T07:33:34;101828.88;;;11.93;57.48
49216;BME280;45943;53.148;8.204;2023-04-07T07:36:00;101826.56;;;11.62;57.63
49216;BME280;45943;53.148;8.204;2023-04-07T07:38:26;101831.28;;;11.58;57.07
49216;BME280;45943;53.148;8.204;2023-04-07T07:40:52;101832.19;;;11.97;57.10
49216;BME280;45943;53.148;8.204;2023-04-07T07:43:18;101834.69;;;12.00;56.41
49216;BME280;45943;53.148;8.204;2023-04-07T07:45:44;101835.41;;;11.89;56.10
49216;BME280;45943;53.148;8.204;2023-04-07T07:48:10;101835.53;;;12.13;55.72
49216;BME280;45943;53.148;8.204;2023-04-07T07:50:36;101838.84;;;12.17;55.54
49216;BME280;45943;53.148;8.204;2023-04-07T07:53:02;101836.44;;;12.38;55.59
49216;BME280;45943;53.148;8.204;2023-04-07T07:55:28;101839.59;;;12.31;55.26
49216;BME280;45943;53.148;8.204;2023-04-07T07:57:54;101839.59;;;12.68;55.48
49216;BME280;45943;53.148;8.204;2023-04-07T08:00:20;101842.25;;;12.81;55.23
49216;BME280;45943;53.148;8.204;2023-04-07T08:02:48;101846.84;;;12.91;54.86
49216;BME280;45943;53.148;8.204;2023-04-07T08:05:14;101841.75;;;13.00;55.34
49216;BME280;45943;53.148;8.204;2023-04-07T08:07:40;101839.75;;;12.90;54.90
49216;BME280;45943;53.148;8.204;2023-04-07T08:10:08;101840.53;;;12.80;54.83
49216;BME280;45943;53.148;8.204;2023-04-07T08:12:34;101848.03;;;12.87;55.30
49216;BME280;45943;53.148;8.204;2023-04-07T08:15:00;101851.25;;;12.92;55.56
49216;BME280;45943;53.148;8.204;2023-04-07T08:17:27;101855.22;;;13.00;55.11
49216;BME280;45943;53.148;8.204;2023-04-07T08:19:53;101852.34;;;13.14;55.40
49216;BME280;45943;53.148;8.204;2023-04-07T08:22:19;101842.91;;;13.08;55.18
49216;BME280;45943;53.148;8.204;2023-04-07T08:24:45;101841.44;;;13.15;54.80
49216;BME280;45943;53.148;8.204;2023-04-07T08:27:12;101845.13;;;13.38;55.08
49216;BME280;45943;53.148;8.204;2023-04-07T08:29:38;101844.44;;;13.47;55.13
49216;BME280;45943;53.148;8.204;2023-04-07T08:32:04;101849.97;;;13.57;54.75
49216;BME280;45943;53.148;8.204;2023-04-07T08:34:30;101844.31;;;13.49;54.28
49216;BME280;45943;53.148;8.204;2023-04-07T08:36:56;101840.13;;;13.45;53.82
49216;BME280;45943;53.148;8.204;2023-04-07T08:39:22;101850.16;;;13.78;55.03
49216;BME280;45943;53.148;8.204;2023-04-07T08:41:50;101843.91;;;14.00;54.71
49216;BME280;45943;53.148;8.204;2023-04-07T08:44:16;101849.06;;;14.03;54.87
49216;BME280;45943;53.148;8.204;2023-04-07T08:46:42;101838.78;;;14.30;54.93
49216;BME280;45943;53.148;8.204;2023-04-07T08:49:10;101844.53;;;14.59;54.24
49216;BME280;45943;53.148;8.204;2023-04-07T08:51:42;101845.78;;;14.55;54.20
49216;BME280;45943;53.148;8.204;2023-04-07T08:54:12;101854.50;;;14.48;54.38
49216;BME280;45943;53.148;8.204;2023-04-07T08:56:40;101854.44;;;14.81;54.48
49216;BME280;45943;53.148;8.204;2023-04-07T08:59:10;101853.00;;;14.66;52.94
49216;BME280;45943;53.148;8.204;2023-04-07T09:01:38;101854.47;;;14.70;52.45
49216;BME280;45943;53.148;8.204;2023-04-07T09:04:06;101863.78;;;14.44;52.30
49216;BME280;45943;53.148;8.204;2023-04-07T09:06:33;101857.91;;;14.61;52.06
49216;BME280;45943;53.148;8.204;2023-04-07T09:09:00;101860.56;;;14.83;52.22
49216;BME280;45943;53.148;8.204;2023-04-07T09:11:28;101861.22;;;14.76;51.25
49216;BME280;45943;53.148;8.204;2023-04-07T09:13:55;101862.28;;;14.96;51.68
49216;BME280;45943;53.148;8.204;2023-04-07T09:16:21;101865.38;;;15.23;50.57
49216;BME280;45943;53.148;8.204;2023-04-07T09:18:51;101858.38;;;15.20;49.22
49216;BME280;45943;53.148;8.204;2023-04-07T09:21:17;101862.38;;;15.05;47.20
49216;BME280;45943;53.148;8.204;2023-04-07T09:23:43;101864.13;;;14.95;46.20
49216;BME280;45943;53.148;8.204;2023-04-07T09:26:20;101857.34;;;15.33;45.94
49216;BME280;45943;53.148;8.204;2023-04-07T09:28:57;101860.66;;;15.36;44.54
49216;BME280;45943;53.148;8.204;2023-04-07T09:31:43;101855.81;;;15.19;41.87
49216;BME280;45943;53.148;8.204;2023-04-07T09:34:52;101865.75;;;14.86;41.06
49216;BME280;45943;53.148;8.204;2023-04-07T09:37:08;101857.97;;;15.36;41.83
49216;BME280;45943;53.148;8.204;2023-04-07T09:39:49;101859.19;;;15.53;40.66
49216;BME280;45943;53.148;8.204;2023-04-07T09:42:17;101870.75;;;15.66;40.05
49216;BME280;45943;53.148;8.204;2023-04-07T09:44:43;101858.72;;;15.27;39.53
49216;BME280;45943;53.148;8.204;2023-04-07T09:47:09;101858.72;;;15.80;39.49
49216;BME280;45943;53.148;8.204;2023-04-07T09:49:52;101864.69;;;15.74;38.73
49216;BME280;45943;53.148;8.204;2023-04-07T09:52:21;101863.28;;;15.80;38.51
49216;BME280;45943;53.148;8.204;2023-04-07T09:54:50;101861.28;;;16.02;38.55
49216;BME280;45943;53.148;8.204;2023-04-07T09:57:18;101864.22;;;15.69;38.33
49216;BME280;45943;53.148;8.204;2023-04-07T09:59:45;101854.19;;;16.11;38.37
49216;BME280;45943;53.148;8.204;2023-04-07T10:02:13;101867.69;;;16.22;37.69
49216;BME280;45943;53.148;8.204;2023-04-07T10:04:39;101850.97;;;16.57;38.03
49216;BME280;45943;53.148;8.204;2023-04-07T10:07:05;101854.97;;;16.94;37.92
49216;BME280;45943;53.148;8.204;2023-04-07T10:09:32;101862.50;;;17.00;37.42
49216;BME280;45943;53.148;8.204;2023-04-07T10:11:58;101858.22;;;16.97;37.28
49216;BME280;45943;53.148;8.204;2023-04-07T10:14:26;101873.50;;;16.58;36.19
49216;BME280;45943;53.148;8.204;2023-04-07T10:16:54;101866.66;;;16.54;37.03
49216;BME280;45943;53.148;8.204;2023-04-07T10:19:20;101871.31;;;16.42;36.82
49216;BME280;45943;53.148;8.204;2023-04-07T10:21:48;101868.81;;;16.60;36.50
49216;BME280;45943;53.148;8.204;2023-04-07T10:24:25;101873.16;;;16.42;36.64
49216;BME280;45943;53.148;8.204;2023-04-07T10:27:03;101878.22;;;16.25;36.57
49216;BME280;45943;53.148;8.204;2023-04-07T10:29:36;101879.41;;;16.32;36.51
49216;BME280;45943;53.148;8.204;2023-04-07T10:32:07;101880.47;;;16.20;36.72
49216;BME280;45943;53.148;8.204;2023-04-07T10:37:15;101883.34;;;16.59;36.22
49216;BME280;45943;53.148;8.204;2023-04-07T10:39:46;101875.66;;;17.04;35.99
49216;BME280;45943;53.148;8.204;2023-04-07T10:45:09;101881.81;;;17.16;35.76
49216;BME280;45943;53.148;8.204;2023-04-07T10:48:08;101879.81;;;17.47;35.59
49216;BME280;45943;53.148;8.204;2023-04-07T10:50:29;101878.81;;;17.48;35.74
49216;BME280;45943;53.148;8.204;2023-04-07T10:53:05;101875.38;;;17.85;35.09
49216;BME280;45943;53.148;8.204;2023-04-07T10:55:37;101886.50;;;18.11;35.15
49216;BME280;45943;53.148;8.204;2023-04-07T10:58:18;101889.59;;;18.16;34.56
49216;BME280;45943;53.148;8.204;2023-04-07T11:03:26;101883.09;;;17.80;34.38
49216;BME280;45943;53.148;8.204;2023-04-07T11:06:03;101886.50;;;18.01;34.46
49216;BME280;45943;53.148;8.204;2023-04-07T11:08:34;101893.03;;;18.08;34.42
49216;BME280;45943;53.148;8.204;2023-04-07T11:11:02;101884.84;;;18.27;34.08
49216;BME280;45943;53.148;8.204;2023-04-07T11:16:09;101895.75;;;18.08;33.28
49216;BME280;45943;53.148;8.204;2023-04-07T11:18:35;101897.09;;;17.94;33.59
49216;BME280;45943;53.148;8.204;2023-04-07T11:21:02;101892.50;;;17.95;33.38
49216;BME280;45943;53.148;8.204;2023-04-07T11:23:37;101889.47;;;18.54;33.09
49216;BME280;45943;53.148;8.204;2023-04-07T11:26:04;101889.25;;;19.20;33.67
49216;BME280;45943;53.148;8.204;2023-04-07T11:28:30;101888.78;;;19.25;34.02
49216;BME280;45943;53.148;8.204;2023-04-07T11:30:56;101891.91;;;19.48;33.70
49216;BME280;45943;53.148;8.204;2023-04-07T11:33:29;101894.72;;;19.56;33.59
49216;BME280;45943;53.148;8.204;2023-04-07T11:35:57;101900.16;;;19.56;33.19
49216;BME280;45943;53.148;8.204;2023-04-07T11:38:25;101897.28;;;19.40;33.12
49216;BME280;45943;53.148;8.204;2023-04-07T11:40:53;101896.34;;;18.86;33.02
49216;BME280;45943;53.148;8.204;2023-04-07T11:43:21;101893.75;;;19.12;34.09
49216;BME280;45943;53.148;8.204;2023-04-07T11:48:42;101891.88;;;19.12;32.48
49216;BME280;45943;53.148;8.204;2023-04-07T11:51:16;101900.94;;;19.48;33.28
49216;BME280;45943;53.148;8.204;2023-04-07T11:53:44;101900.28;;;19.55;33.08
49216;BME280;45943;53.148;8.204;2023-04-07T11:56:12;101902.19;;;19.72;33.51
49216;BME280;45943;53.148;8.204;2023-04-07T11:58:46;101896.19;;;19.33;33.47
49216;BME280;45943;53.148;8.204;2023-04-07T12:01:13;101914.13;;;19.43;32.87
49216;BME280;45943;53.148;8.204;2023-04-07T12:03:54;101907.97;;;19.24;33.05
49216;BME280;45943;53.148;8.204;2023-04-07T12:08:55;101900.06;;;19.30;33.77
49216;BME280;45943;53.148;8.204;2023-04-07T12:11:21;101908.06;;;19.32;34.36
49216;BME280;45943;53.148;8.204;2023-04-07T12:13:47;101911.13;;;19.29;34.06
49216;BME280;45943;53.148;8.204;2023-04-07T12:16:13;101906.53;;;19.83;33.84
49216;BME280;45943;53.148;8.204;2023-04-07T12:18:39;101915.44;;;19.67;33.38
49216;BME280;45943;53.148;8.204;2023-04-07T12:21:05;101909.50;;;19.71;32.99
49216;BME280;45943;53.148;8.204;2023-04-07T12:23:31;101909.09;;;19.84;33.49
49216;BME280;45943;53.148;8.204;2023-04-07T12:25:57;101917.66;;;19.71;33.87
49216;BME280;45943;53.148;8.204;2023-04-07T12:28:23;101914.13;;;19.97;32.29
49216;BME280;45943;53.148;8.204;2023-04-07T12:30:49;101918.28;;;19.65;32.97
49216;BME280;45943;53.148;8.204;2023-04-07T12:33:15;101906.66;;;19.45;33.03
49216;BME280;45943;53.148;8.204;2023-04-07T12:35:41;101921.38;;;19.88;33.05
49216;BME280;45943;53.148;8.204;2023-04-07T12:38:07;101908.28;;;19.92;32.22
49216;BME280;45943;53.148;8.204;2023-04-07T12:40:33;101922.31;;;20.23;33.26
49216;BME280;45943;53.148;8.204;2023-04-07T12:43:00;101911.44;;;20.05;32.06
49216;BME280;45943;53.148;8.204;2023-04-07T12:45:27;101919.25;;;20.00;32.37
49216;BME280;45943;53.148;8.204;2023-04-07T12:47:55;101919.50;;;20.07;32.56
49216;BME280;45943;53.148;8.204;2023-04-07T12:50:21;101921.84;;;20.27;32.21
49216;BME280;45943;53.148;8.204;2023-04-07T12:52:47;101918.66;;;20.14;32.07
49216;BME280;45943;53.148;8.204;2023-04-07T12:55:13;101927.16;;;20.11;32.09
49216;BME280;45943;53.148;8.204;2023-04-07T12:57:39;101918.88;;;19.95;32.30
49216;BME280;45943;53.148;8.204;2023-04-07T13:00:05;101922.84;;;20.00;33.06
49216;BME280;45943;53.148;8.204;2023-04-07T13:02:32;101923.06;;;20.59;31.98
49216;BME280;45943;53.148;8.204;2023-04-07T13:05:01;101922.94;;;20.69;31.32
49216;BME280;45943;53.148;8.204;2023-04-07T13:07:28;101928.13;;;20.46;31.58
49216;BME280;45943;53.148;8.204;2023-04-07T13:09:54;101930.00;;;20.01;32.03
49216;BME280;45943;53.148;8.204;2023-04-07T13:12:20;101924.94;;;20.07;32.28
49216;BME280;45943;53.148;8.204;2023-04-07T13:14:46;101919.34;;;19.55;32.81